Terminal Aerodrome Forecast
Issued by NWS

Home | Current Version | Previous Version | Graphics & Text | Print | Product List | Glossary On
Versions: 1 2 3 4 5 6 7 8 9 10 11 12 13 14 15 16 17 18
000
FTUS41 KCLE 242000 AAA
TAFFDY
TAF AMD
KFDY 242024Z 2420/2518 28010G15KT 6SM -SHRA VCTS BKN004CB OVC015
      TEMPO 2420/2422 3SM -SHRA BR SCT005 OVC008
     FM242200 18015G25KT 4SM -SHRA VCTS OVC006CB
     FM242300 24022G40KT P6SM OVC012
     FM250700 25015G30KT 3SM -SHSN OVC012
     FM251000 25012G22KT P6SM OVC015
     FM251400 26012G24KT P6SM -SHSN OVC024=

USA.gov is the U.S. government's official web portal to all federal, state and local government web resources and services.